Terminal Aerodrome Forecast
Issued by NWS Jackson, MS

Home | Current Version | Previous Version | Text Only | Print | Product List | Glossary On
Versions: 1 2 3 4 5 6 7 8 9 10 11 12 13 14 15 16 17 18 19 20
000
FTUS44 KMEG 030526
TAFTUP
TAF
KTUP 030526Z 0306/0406 05004KT P6SM SKC
      TEMPO 0309/0313 2SM BR
     FM031300 03005KT P6SM SKC
     FM040000 00000KT P6SM SKC=

USA.gov is the U.S. government's official web portal to all federal, state and local government web resources and services.